createdAt,value
2017-11-22T00:03:36.625Z,8.30
2017-11-22T00:08:37.635Z,8.40
2017-11-22T00:13:38.623Z,8.40
2017-11-22T00:18:40.654Z,8.40
2017-11-22T00:23:42.406Z,8.40
2017-11-22T00:28:43.377Z,8.30
2017-11-22T00:33:44.354Z,8.40
2017-11-22T00:38:45.342Z,8.40
2017-11-22T00:43:46.311Z,8.30
2017-11-22T00:48:48.274Z,8.20
2017-11-22T00:53:49.253Z,8.10
2017-11-22T00:58:50.246Z,8.20
2017-11-22T01:03:51.374Z,8.20
2017-11-22T01:08:52.397Z,8.10
2017-11-22T01:13:53.413Z,8.10
2017-11-22T01:18:54.458Z,8.10
2017-11-22T01:23:55.609Z,8.10
2017-11-22T01:28:56.590Z,8.10
2017-11-22T01:33:57.615Z,8.10
2017-11-22T01:39:00.216Z,8.10
2017-11-22T01:44:01.274Z,8.20
2017-11-22T01:49:02.303Z,8.20
2017-11-22T01:54:03.393Z,8.20
2017-11-22T01:59:04.439Z,8.10
2017-11-22T02:04:05.430Z,8.10
2017-11-22T02:09:06.465Z,8.10
2017-11-22T02:14:09.216Z,8.20
2017-11-22T02:19:10.190Z,8.20
2017-11-22T02:24:11.293Z,8.30
2017-11-22T02:29:12.262Z,8.30
2017-11-22T02:34:14.263Z,8.20
2017-11-22T02:39:15.251Z,8.20
2017-11-22T02:44:16.210Z,8.10
2017-11-22T02:49:17.935Z,8.20
2017-11-22T02:54:18.935Z,8.10
2017-11-22T02:59:19.922Z,8.10
2017-11-22T03:04:20.886Z,8.10
2017-11-22T03:09:22.329Z,8.10
2017-11-22T03:14:23.325Z,8.10
2017-11-22T03:19:24.313Z,8.10
2017-11-22T03:24:25.298Z,8.10
2017-11-22T03:29:27.027Z,8.00
2017-11-22T03:34:27.986Z,7.90
2017-11-22T03:39:29.727Z,7.90
2017-11-22T03:44:30.709Z,7.90
2017-11-22T03:49:37.858Z,8.10
2017-11-22T03:54:38.883Z,8.00
2017-11-22T03:59:39.878Z,7.80
2017-11-22T04:04:40.881Z,7.60
2017-11-22T04:09:41.857Z,7.40
2017-11-22T04:14:42.827Z,7.40
2017-11-22T04:19:49.767Z,7.40
2017-11-22T04:24:50.742Z,7.40
2017-11-22T04:29:51.727Z,7.50
2017-11-22T04:34:53.015Z,7.50
2017-11-22T04:39:54.010Z,7.60
2017-11-22T04:44:55.010Z,7.60
2017-11-22T04:49:56.014Z,7.70
2017-11-22T04:54:56.987Z,7.90
2017-11-22T04:59:57.966Z,7.80
2017-11-22T05:04:58.934Z,7.80
2017-11-22T05:10:00.369Z,7.70
2017-11-22T05:15:01.361Z,7.70
2017-11-22T05:20:02.414Z,7.80
2017-11-22T05:25:04.206Z,7.70
2017-11-22T05:30:06.034Z,7.60
2017-11-22T05:35:07.051Z,7.60
2017-11-22T05:40:08.258Z,7.60
2017-11-22T05:45:09.366Z,7.60
2017-11-22T05:50:11.194Z,7.60
2017-11-22T05:55:13.009Z,7.60
2017-11-22T06:00:14.070Z,7.60
2017-11-22T06:05:15.101Z,7.60
2017-11-22T06:10:16.070Z,7.70
2017-11-22T06:15:17.351Z,7.70
2017-11-22T06:20:18.314Z,7.70
2017-11-22T06:25:20.138Z,7.70
2017-11-22T06:30:26.739Z,7.60
2017-11-22T06:35:27.798Z,7.60
2017-11-22T06:40:29.667Z,7.50
2017-11-22T06:45:30.753Z,7.40
2017-11-22T06:50:31.830Z,7.30
2017-11-22T06:55:33.019Z,7.30
2017-11-22T07:00:34.922Z,7.20
2017-11-22T07:05:36.179Z,7.20
2017-11-22T07:10:37.151Z,7.20
2017-11-22T07:15:38.963Z,7.30
2017-11-22T07:20:40.194Z,7.20
2017-11-22T07:25:41.191Z,7.40
2017-11-22T07:30:42.162Z,7.60
2017-11-22T07:35:49.430Z,7.80
2017-11-22T07:40:51.279Z,8.10
2017-11-22T07:45:52.274Z,8.10
2017-11-22T07:50:58.114Z,8.10
2017-11-22T07:55:59.139Z,8.10
2017-11-22T08:01:00.298Z,8.10
2017-11-22T08:06:01.493Z,7.90
2017-11-22T08:11:02.628Z,7.90
2017-11-22T08:16:03.637Z,8.00
2017-11-22T08:21:05.527Z,8.00
2017-11-22T08:26:06.537Z,8.00
2017-11-22T08:31:07.518Z,8.10
2017-11-22T08:36:08.546Z,8.30
2017-11-22T08:41:09.510Z,9.40
2017-11-22T08:46:10.478Z,10.10
2017-11-22T08:51:11.446Z,9.40
2017-11-22T08:56:18.582Z,10.30
2017-11-22T09:01:20.266Z,10.00
2017-11-22T09:06:27.415Z,9.90
2017-11-22T09:11:28.379Z,10.00
2017-11-22T09:16:29.344Z,10.20
2017-11-22T09:21:31.054Z,10.10
2017-11-22T09:26:32.017Z,10.00
2017-11-22T09:31:39.774Z,11.50
2017-11-22T09:36:40.754Z,11.50
2017-11-22T09:41:42.477Z,12.10
2017-11-22T09:46:43.442Z,12.00
2017-11-22T09:51:44.401Z,11.80
2017-11-22T09:56:46.110Z,12.60
2017-11-22T10:01:47.865Z,12.80
2017-11-22T10:06:48.846Z,12.70
2017-11-22T10:11:49.842Z,12.60
2017-11-22T10:16:56.923Z,12.20
2017-11-22T10:22:02.780Z,11.90
2017-11-22T10:27:09.978Z,11.90
2017-11-22T10:32:10.969Z,11.50
2017-11-22T10:37:11.958Z,11.70
2017-11-22T10:42:12.953Z,11.20
2017-11-22T10:47:13.946Z,11.50
2017-11-22T10:52:15.660Z,11.30
2017-11-22T10:57:16.633Z,11.30
2017-11-22T11:02:18.646Z,11.50
2017-11-22T11:07:20.529Z,11.50
2017-11-22T11:12:22.433Z,11.70
2017-11-22T11:17:23.563Z,11.70
2017-11-22T11:22:24.582Z,11.60
2017-11-22T11:27:25.759Z,12.00
2017-11-22T11:32:26.930Z,12.00
2017-11-22T11:37:27.942Z,12.20
2017-11-22T11:42:29.166Z,12.40
2017-11-22T11:47:30.278Z,12.50
2017-11-22T11:52:31.470Z,12.40
2017-11-22T11:57:32.610Z,12.30
2017-11-22T12:02:33.762Z,12.20
2017-11-22T12:07:34.862Z,12.40
2017-11-22T12:12:35.864Z,12.40
2017-11-22T12:17:36.906Z,12.60
2017-11-22T12:22:43.025Z,12.70
2017-11-22T12:27:44.015Z,12.80
2017-11-22T12:32:44.994Z,12.70
2017-11-22T12:37:45.966Z,12.80
2017-11-22T12:42:46.946Z,12.90
2017-11-22T12:47:47.942Z,12.90
2017-11-22T12:52:48.921Z,12.90
2017-11-22T12:57:52.662Z,13.00
2017-11-22T13:02:53.642Z,13.00
2017-11-22T13:07:54.648Z,13.00
2017-11-22T13:12:57.467Z,13.00
2017-11-22T13:17:58.434Z,13.00
2017-11-22T13:22:59.418Z,13.10
2017-11-22T13:28:00.399Z,13.10
2017-11-22T13:33:01.380Z,13.10
2017-11-22T13:38:02.338Z,13.10
2017-11-22T13:43:03.298Z,13.10
2017-11-22T13:48:04.265Z,13.10
2017-11-22T13:53:05.254Z,13.10
2017-11-22T13:58:06.235Z,13.10
2017-11-22T14:03:07.214Z,13.10
2017-11-22T14:08:08.169Z,13.10
2017-11-22T14:13:09.130Z,13.00
2017-11-22T14:18:10.093Z,13.00
2017-11-22T14:23:11.058Z,13.00
2017-11-22T14:28:12.034Z,13.00
2017-11-22T14:33:13.003Z,13.00
2017-11-22T14:38:14.702Z,12.90
2017-11-22T14:43:15.666Z,12.80
2017-11-22T14:48:17.377Z,12.80
2017-11-22T14:53:19.090Z,12.70
2017-11-22T14:58:20.050Z,12.70
2017-11-22T15:03:21.754Z,12.60
2017-11-22T15:08:22.721Z,12.60
2017-11-22T15:13:24.429Z,12.50
2017-11-22T15:18:26.150Z,12.50
2017-11-22T15:23:27.109Z,12.50
2017-11-22T15:28:28.806Z,12.40
2017-11-22T15:33:30.535Z,12.40
2017-11-22T15:38:31.490Z,12.30
2017-11-22T15:43:33.210Z,12.40
2017-11-22T15:48:34.905Z,12.30
2017-11-22T15:53:35.878Z,12.20
2017-11-22T15:58:37.585Z,12.40
2017-11-22T16:03:38.561Z,12.30
2017-11-22T16:08:40.265Z,11.90
2017-11-22T16:13:41.973Z,11.80
2017-11-22T16:18:42.942Z,11.80
2017-11-22T16:23:44.661Z,11.50
2017-11-22T16:28:45.766Z,11.50
2017-11-22T16:33:46.957Z,11.80
2017-11-22T16:38:48.083Z,11.70
2017-11-22T16:43:49.809Z,11.80
2017-11-22T16:48:50.777Z,11.70
2017-11-22T16:53:52.497Z,12.00
2017-11-22T16:58:53.527Z,12.00
2017-11-22T17:03:55.562Z,12.20
2017-11-22T17:08:56.542Z,12.20
2017-11-22T17:13:58.265Z,12.20
2017-11-22T17:18:59.385Z,12.20
2017-11-22T17:29:09.347Z,11.80
2017-11-22T17:34:10.323Z,11.50
2017-11-22T17:39:11.290Z,11.20
2017-11-22T17:44:12.263Z,11.00
2017-11-22T17:49:13.238Z,11.20
2017-11-22T17:54:14.227Z,11.70
2017-11-22T17:59:15.221Z,11.80
2017-11-22T18:04:16.214Z,11.30
2017-11-22T18:09:17.206Z,11.60
2017-11-22T18:14:18.194Z,11.80
2017-11-22T18:19:19.167Z,11.80
2017-11-22T18:24:20.137Z,11.50
2017-11-22T18:29:21.122Z,11.50
2017-11-22T18:34:22.090Z,11.30
2017-11-22T18:39:23.077Z,11.30
2017-11-22T18:44:24.077Z,10.80
2017-11-22T18:49:25.066Z,10.50
2017-11-22T18:54:26.054Z,10.30
2017-11-22T18:59:27.063Z,10.20
2017-11-22T19:04:28.026Z,10.20
2017-11-22T19:09:29.015Z,10.10
2017-11-22T19:14:30.090Z,10.20
2017-11-22T19:19:31.179Z,10.10
2017-11-22T19:24:32.150Z,10.00
2017-11-22T19:29:33.126Z,9.90
2017-11-22T19:34:34.117Z,9.80
2017-11-22T19:39:35.098Z,9.60
2017-11-22T19:44:36.278Z,9.40
2017-11-22T19:49:37.596Z,9.20
2017-11-22T19:54:39.041Z,9.20
2017-11-22T19:59:40.303Z,9.20
2017-11-22T20:04:41.614Z,8.80
2017-11-22T20:09:42.863Z,8.60
2017-11-22T20:14:44.905Z,8.30
2017-11-22T20:19:46.178Z,8.30
2017-11-22T20:24:49.015Z,8.30
2017-11-22T20:29:50.002Z,8.20
2017-11-22T20:34:50.998Z,8.30
2017-11-22T20:39:51.966Z,8.30
2017-11-22T20:44:53.050Z,8.40
2017-11-22T20:49:54.405Z,8.70
2017-11-22T20:54:55.770Z,8.80
2017-11-22T20:59:56.818Z,9.00
2017-11-22T21:04:57.915Z,9.20
2017-11-22T21:09:58.972Z,9.20
2017-11-22T21:15:00.374Z,9.80
2017-11-22T21:20:01.599Z,9.80
2017-11-22T21:25:02.816Z,10.10
2017-11-22T21:30:03.967Z,10.20
2017-11-22T21:35:05.089Z,10.40
2017-11-22T21:40:06.879Z,10.30
2017-11-22T21:45:08.194Z,10.30
2017-11-22T21:50:10.180Z,11.30
2017-11-22T21:55:11.539Z,11.20
2017-11-22T22:00:12.871Z,11.10
2017-11-22T22:05:13.998Z,11.20
2017-11-22T22:10:15.237Z,10.90
2017-11-22T22:15:17.059Z,10.10
2017-11-22T22:20:18.296Z,10.00
2017-11-22T22:25:19.363Z,9.20
2017-11-22T22:30:21.358Z,8.40
2017-11-22T22:35:22.363Z,8.40
2017-11-22T22:40:23.339Z,8.30
2017-11-22T22:45:24.354Z,8.10
2017-11-22T22:50:26.074Z,7.60
2017-11-22T22:55:27.130Z,7.50
2017-11-22T23:00:29.164Z,7.60
2017-11-22T23:05:30.372Z,7.60
2017-11-22T23:10:31.490Z,7.40
2017-11-22T23:15:32.594Z,7.50
2017-11-22T23:20:33.850Z,7.50
2017-11-22T23:25:34.859Z,7.40
2017-11-22T23:30:35.861Z,7.30
2017-11-22T23:35:37.616Z,8.40
2017-11-22T23:40:38.768Z,8.30
2017-11-22T23:45:39.794Z,8.90
2017-11-22T23:50:40.791Z,9.10
2017-11-22T23:55:41.806Z,9.00
